Time;durP1;ratioP1;P1;durP2;ratioP2;P2;SDS_P1;SDS_P2;PMS_P1;PMS_P2;Temp;Humidity;BMP_temperature;BMP_pressure;BME280_temperature;BME280_humidity;BME280_pressure;Samples;Min_cycle;Max_cycle;Signal;HPM_P1;HPM_P2
2023/05/08 00:00:07;;;;;;;24.53;13.60;;;16.00;72.30;;;;;;6333277;22;20353;-77
2023/05/08 00:02:33;;;;;;;18.83;13.47;;;16.00;81.50;;;;;;6333648;22;20717;-77
2023/05/08 00:04:58;;;;;;;19.40;12.87;;;16.00;79.60;;;;;;6334424;22;20365;-77
2023/05/08 00:07:24;;;;;;;20.13;13.67;;;16.00;83.10;;;;;;6334475;22;20147;-77
2023/05/08 00:09:49;;;;;;;23.70;15.07;;;16.10;79.50;;;;;;6306337;22;20599;-78
2023/05/08 00:12:15;;;;;;;19.60;14.33;;;15.90;68.50;;;;;;6334770;22;20611;-77
2023/05/08 00:14:40;;;;;;;22.60;14.27;;;15.90;78.10;;;;;;6334065;22;20349;-77
2023/05/08 00:35:14;;;;;;;16.17;12.40;;;;;;;;;;6306180;22;20380;-77
2023/05/08 00:37:40;;;;;;;20.63;14.10;;;;;;;;;;6307550;22;20784;-77
2023/05/08 00:47:52;;;;;;;18.20;12.27;;;;;;;;;;6321923;22;20435;-77
2023/05/08 00:50:18;;;;;;;18.53;13.53;;;16.00;81.10;;;;;;6307445;22;20773;-77
2023/05/08 01:46:52;;;;;;;15.60;8.77;;;15.90;88.20;;;;;;6306835;22;20391;-78
2023/05/08 01:49:29;;;;;;;12.33;9.13;;;15.90;88.30;;;;;;6333556;22;20389;-78
2023/05/08 01:57:08;;;;;;;9.00;7.63;;;16.00;84.90;;;;;;6312057;22;20472;-77
2023/05/08 01:59:35;;;;;;;8.60;7.70;;;15.80;84.80;;;;;;6333917;22;20393;-80
2023/05/08 02:07:12;;;;;;;17.20;10.73;;;;;;;;;;6311631;22;20738;-79
2023/05/08 02:09:39;;;;;;;15.27;9.77;;;15.90;90.30;;;;;;6307339;22;20713;-79
2023/05/08 02:38:00;;;;;;;13.30;9.67;;;15.80;90.70;;;;;;6310316;22;20443;-79
2023/05/08 02:52:05;;;;;;;10.23;7.90;;;15.80;91.60;;;;;;6324770;22;20448;-79
2023/05/08 03:02:55;;;;;;;6.83;5.80;;;15.70;86.30;;;;;;6318238;22;20784;-78
2023/05/08 03:31:19;;;;;;;5.67;5.07;;;15.40;70.20;;;;;;6302522;22;20353;-79
2023/05/08 03:33:52;;;;;;;8.17;5.60;;;15.30;70.10;;;;;;6333925;22;20435;-79
2023/05/08 03:44:04;;;;;;;9.57;5.03;;;15.40;72.50;;;;;;6330484;22;20444;-78
2023/05/08 04:02:08;;;;;;;10.80;5.80;;;15.30;70.20;;;;;;6310408;22;20753;-80
2023/05/08 04:04:39;;;;;;;7.10;5.47;;;15.20;71.90;;;;;;6334195;22;20844;-79
2023/05/08 04:17:46;;;;;;;6.57;5.87;;;15.20;64.90;;;;;;6331964;22;20440;-78
2023/05/08 04:20:16;;;;;;;7.17;6.00;;;15.20;62.30;;;;;;6340529;22;20361;-79
2023/05/08 04:22:44;;;;;;;7.53;6.60;;;15.20;66.10;;;;;;6334572;22;20372;-77
2023/05/08 04:43:52;;;;;;;7.60;5.97;;;15.20;40.90;;;;;;6308671;22;20446;-74
2023/05/08 04:56:39;;;;;;;6.47;5.83;;;;;;;;;;6314614;22;20433;-79
2023/05/08 05:35:25;;;;;;;7.80;6.40;;;;;;;;;;6308502;22;21448;-78
2023/05/08 05:50:45;;;;;;;6.80;6.03;;;;;;;;;;6290373;22;20953;-79
2023/05/08 05:53:11;;;;;;;9.03;6.13;;;;;;;;;;6303977;22;20362;-76
2023/05/08 05:55:37;;;;;;;7.50;5.93;;;16.10;22.80;;;;;;6275987;22;20429;-76
2023/05/08 05:58:03;;;;;;;6.53;5.93;;;16.10;23.80;;;;;;6276919;22;20377;-76
2023/05/08 06:00:30;;;;;;;7.50;6.40;;;16.10;18.70;;;;;;6304236;22;20151;-71
2023/05/08 06:02:56;;;;;;;9.77;6.70;;;16.20;20.80;;;;;;6304951;22;20171;-76
2023/05/08 06:05:22;;;;;;;9.23;6.20;;;16.20;17.80;;;;;;6276142;22;20405;-76
2023/05/08 06:07:47;;;;;;;7.03;5.97;;;16.20;11.40;;;;;;6304629;22;20374;-76
2023/05/08 06:28:29;;;;;;;8.70;7.80;;;;;;;;;;6290324;22;20490;-76
2023/05/08 06:30:55;;;;;;;7.90;7.03;;;16.40;14.20;;;;;;6277235;22;20768;-76
2023/05/08 06:33:20;;;;;;;12.30;8.07;;;16.30;22.00;;;;;;6302140;22;20196;-75
2023/05/08 06:59:04;;;;;;;11.17;8.67;;;;;;;;;;6285134;22;20415;-79
2023/05/08 07:01:30;;;;;;;12.10;9.27;;;;;;;;;;6283242;22;20453;-79
2023/05/08 07:03:56;;;;;;;10.93;8.97;;;16.20;24.40;;;;;;6289280;22;20203;-82
2023/05/08 07:06:22;;;;;;;14.20;10.97;;;;;;;;;;6322270;22;20290;-75
2023/05/08 07:13:54;;;;;;;12.83;10.00;;;;;;;;;;6291395;22;20445;-80
2023/05/08 07:18:55;;;;;;;14.00;10.53;;;;;;;;;;6288979;22;20732;-78
2023/05/08 07:21:21;;;;;;;15.17;10.57;;;;;;;;;;6296633;22;21000;-80
2023/05/08 07:28:52;;;;;;;18.50;10.73;;;;;;;;;;6302116;22;20447;-74
2023/05/08 07:33:54;;;;;;;14.10;11.17;;;;;;;;;;6299460;22;20455;-76
2023/05/08 07:36:21;;;;;;;14.87;10.73;;;;;;;;;;6290846;22;21380;-76
2023/05/08 07:38:47;;;;;;;16.60;11.40;;;;;;;;;;6299023;22;20960;-80
2023/05/08 07:41:13;;;;;;;13.43;10.67;;;;;;;;;;6333326;22;20452;-81
2023/05/08 07:43:39;;;;;;;11.93;10.70;;;;;;;;;;6310840;22;20527;-79
2023/05/08 07:48:41;;;;;;;13.30;11.23;;;;;;;;;;6337261;22;20443;-71
2023/05/08 07:51:10;;;;;;;13.33;11.93;;;;;;;;;;6337547;22;20418;-79
2023/05/08 07:53:36;;;;;;;14.03;10.60;;;;;;;;;;6337365;22;20279;-79
2023/05/08 07:58:30;;;;;;;15.73;11.97;;;;;;;;;;6321369;22;20529;-79
2023/05/08 08:05:59;;;;;;;15.93;11.50;;;;;;;;;;6329401;22;20420;-78
2023/05/08 08:08:25;;;;;;;13.20;11.43;;;;;;;;;;6337796;22;20357;-79
2023/05/08 08:13:19;;;;;;;13.60;11.97;;;;;;;;;;6327317;22;20202;-79
2023/05/08 08:20:47;;;;;;;13.10;11.70;;;;;;;;;;6320921;22;20455;-75
2023/05/08 08:23:13;;;;;;;15.60;12.63;;;;;;;;;;6334959;22;20448;-74
2023/05/08 08:28:22;;;;;;;13.40;11.77;;;;;;;;;;6330125;22;20678;-79
2023/05/08 08:51:31;;;;;;;17.53;12.30;;;17.50;1.00;;;;;;6306597;22;20435;-76
2023/05/08 08:54:16;;;;;;;15.90;12.57;;;17.50;1.00;;;;;;6335281;22;20380;-75
2023/05/08 08:56:47;;;;;;;15.53;13.47;;;17.60;1.00;;;;;;6297161;22;20444;-79
2023/05/08 09:07:00;;;;;;;15.37;12.93;;;;;;;;;;6320952;22;20429;-78
2023/05/08 09:09:27;;;;;;;16.43;13.43;;;;;;;;;;6339141;22;20444;-79
2023/05/08 09:14:28;;;;;;;15.77;12.70;;;;;;;;;;6304816;22;20409;-79
2023/05/08 09:16:53;;;;;;;16.17;12.53;;;15.90;1.00;;;;;;6282387;22;20448;-79
2023/05/08 09:22:00;;;;;;;18.27;13.07;;;17.80;1.00;;;;;;6334483;22;20206;-80
2023/05/08 09:24:26;;;;;;;18.07;13.27;;;;;;;;;;6337627;22;20440;-81
2023/05/08 09:26:52;;;;;;;16.00;12.40;;;18.00;1.00;;;;;;6314783;22;20790;-78
2023/05/08 09:34:26;;;;;;;19.30;12.40;;;18.30;1.00;;;;;;5302853;22;20607;-79
2023/05/08 09:36:51;;;;;;;17.90;12.10;;;18.30;1.00;;;;;;5089396;28;20521;-80
2023/05/08 09:39:24;;;;;;;14.00;11.60;;;18.30;1.00;;;;;;5167057;22;21004;-80
2023/05/08 09:42:02;;;;;;;13.40;11.93;;;18.20;1.00;;;;;;5213786;22;20239;-82
2023/05/08 09:44:28;;;;;;;13.47;11.50;;;18.50;1.00;;;;;;5294498;22;20847;-82
2023/05/08 09:47:10;;;;;;;15.50;12.47;;;18.20;1.00;;;;;;5279169;22;20471;-78
2023/05/08 09:49:36;;;;;;;15.87;12.30;;;18.20;1.00;;;;;;5463776;22;20995;-81
2023/05/08 09:52:02;;;;;;;14.97;12.37;;;18.30;1.00;;;;;;5131015;22;20498;-78
2023/05/08 09:54:27;;;;;;;14.47;12.30;;;18.20;1.00;;;;;;5071864;28;20434;-80
2023/05/08 09:56:53;;;;;;;13.37;11.90;;;18.20;1.00;;;;;;5177652;22;20302;-79
2023/05/08 10:04:32;;;;;;;14.43;12.10;;;18.20;1.00;;;;;;6113644;22;20384;-81
2023/05/08 10:06:58;;;;;;;20.43;11.83;;;18.20;1.00;;;;;;5243125;22;20490;-81
2023/05/08 10:09:23;;;;;;;14.77;12.50;;;18.40;1.00;;;;;;5586062;22;21529;-81
2023/05/08 10:19:39;;;;;;;17.33;12.97;;;18.40;1.00;;;;;;5738102;22;20465;-82
2023/05/08 10:24:42;;;;;;;16.43;12.90;;;18.40;1.00;;;;;;5413981;22;20766;-83
2023/05/08 10:30:03;;;;;;;14.67;12.77;;;18.10;1.00;;;;;;5125331;22;20991;-80
2023/05/08 10:35:07;;;;;;;17.93;14.00;;;18.10;1.00;;;;;;5723040;22;21017;-80
2023/05/08 10:37:34;;;;;;;16.67;13.23;;;18.20;1.00;;;;;;5584316;22;20531;-82
2023/05/08 10:51:00;;;;;;;14.27;12.50;;;18.90;1.00;;;;;;5451189;22;20487;-76
2023/05/08 11:06:59;;;;;;;14.00;12.03;;;20.90;1.00;;;;;;5474553;22;20462;-78
2023/05/08 11:17:08;;;;;;;14.07;11.50;;;21.60;1.00;;;;;;5480517;22;20631;-76
2023/05/08 11:19:35;;;;;;;11.90;9.80;;;21.60;1.00;;;;;;5143509;22;20497;-80
2023/05/08 11:22:10;;;;;;;13.10;11.20;;;22.60;1.00;;;;;;5287384;22;20565;-79
2023/05/08 11:24:37;;;;;;;12.20;10.90;;;22.70;1.00;;;;;;5166211;22;20565;-79
2023/05/08 11:29:30;;;;;;;13.70;11.77;;;22.80;1.00;;;;;;5094229;22;20832;-78
2023/05/08 11:31:56;;;;;;;11.17;10.03;;;23.20;1.00;;;;;;5476143;22;20486;-78
2023/05/08 11:37:03;;;;;;;11.43;9.47;;;23.80;1.00;;;;;;5107170;22;20230;-75
2023/05/08 11:39:28;;;;;;;9.40;8.40;;;24.20;1.00;;;;;;5065079;28;20441;-74
2023/05/08 11:41:54;;;;;;;9.33;8.30;;;24.60;1.00;;;;;;5090795;22;20493;-75
2023/05/08 11:44:27;;;;;;;8.90;8.00;;;25.30;1.00;;;;;;5076731;28;20192;-78
2023/05/08 11:46:54;;;;;;;11.50;9.33;;;25.60;1.00;;;;;;5226893;22;20228;-73
2023/05/08 11:49:24;;;;;;;9.60;8.50;;;25.60;1.00;;;;;;5113134;22;20927;-78
2023/05/08 11:51:54;;;;;;;9.83;8.83;;;25.50;1.00;;;;;;5037450;28;20531;-73
2023/05/08 11:56:56;;;;;;;10.70;8.60;;;25.60;1.00;;;;;;5205389;22;20513;-75
2023/05/08 11:59:22;;;;;;;11.77;8.63;;;25.10;1.00;;;;;;5088405;22;20474;-78
2023/05/08 12:07:05;;;;;;;11.27;8.53;;;23.10;1.00;;;;;;5172076;22;20482;-79
2023/05/08 12:09:30;;;;;;;8.60;7.70;;;22.70;1.00;;;;;;5201266;22;22529;-80
2023/05/08 12:11:57;;;;;;;8.90;7.43;;;22.40;1.00;;;;;;5107859;22;20216;-81
2023/05/08 12:14:22;;;;;;;8.00;7.10;;;23.40;1.00;;;;;;5058972;28;20652;-74
2023/05/08 12:19:30;;;;;;;7.60;6.67;;;;;;;;;;5199048;22;20702;-76
2023/05/08 12:21:56;;;;;;;8.37;7.47;;;22.50;1.00;;;;;;5109717;22;20542;-82
2023/05/08 12:26:54;;;;;;;7.90;7.00;;;23.10;1.00;;;;;;5019737;28;20226;-76
2023/05/08 12:29:21;;;;;;;8.47;7.60;;;23.20;1.00;;;;;;5067813;22;20486;-77
2023/05/08 12:31:47;;;;;;;7.90;7.10;;;23.40;1.00;;;;;;5136942;22;20502;-79
2023/05/08 12:34:13;;;;;;;8.33;7.10;;;23.60;1.00;;;;;;5048901;28;20469;-76
2023/05/08 12:36:38;;;;;;;7.80;7.00;;;24.10;1.00;;;;;;5070960;22;20536;-79
2023/05/08 12:39:15;;;;;;;8.40;7.03;;;25.00;1.00;;;;;;5072199;28;20190;-79
2023/05/08 12:41:45;;;;;;;7.50;6.67;;;25.00;1.00;;;;;;5085757;22;20632;-76
2023/05/08 12:52:11;;;;;;;9.20;8.23;;;26.00;1.00;;;;;;5053206;28;20571;-77
2023/05/08 12:54:40;;;;;;;9.40;7.97;;;26.70;1.00;;;;;;5050560;28;20940;-78
2023/05/08 12:57:13;;;;;;;8.37;7.50;;;26.50;1.00;;;;;;5052602;28;20508;-77
2023/05/08 12:59:39;;;;;;;7.87;7.10;;;26.00;1.00;;;;;;5091428;22;20533;-81
2023/05/08 13:02:26;;;;;;;9.63;7.17;;;25.90;1.00;;;;;;5387085;22;20482;-80
2023/05/08 13:07:31;;;;;;;9.70;8.17;;;26.60;1.00;;;;;;5051570;28;20470;-77
2023/05/08 13:10:01;;;;;;;8.67;7.77;;;26.90;1.00;;;;;;5106055;22;20493;-78
2023/05/08 13:12:26;;;;;;;9.07;8.17;;;27.50;1.00;;;;;;5099981;22;20485;-77
2023/05/08 13:17:31;;;;;;;8.97;8.07;;;27.10;1.00;;;;;;5433240;22;20937;-76
2023/05/08 13:22:32;;;;;;;11.17;7.93;;;29.70;1.00;;;;;;5622006;22;20560;-76
2023/05/08 13:30:02;;;;;;;8.25;7.30;;;31.30;1.00;;;;;;5191354;22;20225;-77
2023/05/08 13:37:25;;;;;;;8.83;7.73;;;29.60;1.00;;;;;;5212006;22;20259;-76
2023/05/08 13:42:32;;;;;;;9.10;7.40;;;28.80;1.00;;;;;;5512596;22;20772;-76
2023/05/08 13:44:58;;;;;;;8.90;7.63;;;27.80;1.00;;;;;;5354234;22;20220;-79
2023/05/08 13:47:24;;;;;;;8.70;7.80;;;27.70;1.00;;;;;;5127800;22;20246;-77
2023/05/08 13:49:52;;;;;;;8.97;8.07;;;27.10;1.00;;;;;;5225948;22;20224;-78
2023/05/08 13:52:18;;;;;;;7.73;6.93;;;26.60;1.00;;;;;;5045799;28;20263;-80
2023/05/08 13:54:43;;;;;;;7.70;7.00;;;26.20;1.00;;;;;;5084047;22;20753;-78
2023/05/08 13:59:44;;;;;;;8.07;6.00;;;29.70;1.00;;;;;;5482890;22;20208;-80
2023/05/08 14:02:09;;;;;;;7.53;6.73;;;29.70;1.00;;;;;;5129232;22;20224;-79
2023/05/08 14:04:35;;;;;;;8.77;6.73;;;30.40;1.00;;;;;;5075401;22;20228;-76
2023/05/08 14:09:36;;;;;;;8.43;7.60;;;28.50;1.00;;;;;;5600280;22;20198;-77
2023/05/08 14:12:01;;;;;;;12.43;7.63;;;28.00;1.00;;;;;;5669149;22;21111;-81
2023/05/08 14:14:27;;;;;;;8.80;7.90;;;28.00;1.00;;;;;;5234760;22;20223;-78
2023/05/08 14:19:34;;;;;;;7.90;7.10;;;27.40;1.00;;;;;;5254306;22;20801;-80
2023/05/08 14:24:29;;;;;;;7.33;6.57;;;26.90;1.00;;;;;;5078406;22;20228;-78
2023/05/08 14:26:55;;;;;;;7.17;6.47;;;26.20;1.00;;;;;;5056128;28;20269;-77
2023/05/08 14:32:01;;;;;;;8.53;7.63;;;25.70;1.00;;;;;;5053976;28;20216;-80
2023/05/08 14:34:26;;;;;;;9.83;7.80;;;25.30;1.00;;;;;;5125359;22;20543;-74
2023/05/08 14:36:58;;;;;;;13.10;7.07;;;25.40;1.00;;;;;;5202738;22;20251;-81
2023/05/08 14:39:26;;;;;;;7.77;6.83;;;26.30;1.00;;;;;;5153141;22;20242;-81
2023/05/08 14:44:29;;;;;;;9.17;8.00;;;27.90;1.00;;;;;;5185190;22;20481;-74
2023/05/08 14:46:55;;;;;;;11.20;7.00;;;28.70;1.00;;;;;;5066240;28;20546;-76
2023/05/08 14:49:20;;;;;;;8.60;7.80;;;29.20;1.00;;;;;;5059480;28;20185;-80
2023/05/08 14:51:46;;;;;;;9.00;7.73;;;29.10;1.00;;;;;;5076457;28;20163;-75
2023/05/08 14:54:11;;;;;;;9.80;7.83;;;28.40;1.00;;;;;;5079066;28;20321;-80
2023/05/08 14:56:37;;;;;;;9.37;8.40;;;27.90;1.00;;;;;;5071404;28;20208;-76
2023/05/08 14:59:02;;;;;;;9.97;8.97;;;28.40;1.00;;;;;;5089538;22;20212;-72
2023/05/08 15:01:28;;;;;;;9.97;8.97;;;28.20;1.00;;;;;;5049775;28;20177;-78
2023/05/08 15:03:54;;;;;;;11.10;8.70;;;26.80;1.00;;;;;;5055019;28;20180;-75
2023/05/08 15:06:21;;;;;;;9.97;8.97;;;26.10;1.00;;;;;;5056938;28;20455;-75
2023/05/08 15:08:47;;;;;;;11.80;9.13;;;25.80;1.00;;;;;;5051697;28;20208;-75
2023/05/08 15:11:13;;;;;;;10.60;9.50;;;25.20;1.00;;;;;;5051544;28;20529;-75
2023/05/08 15:13:38;;;;;;;14.63;9.80;;;24.90;1.00;;;;;;5049322;28;20909;-76
2023/05/08 15:16:04;;;;;;;10.57;9.47;;;24.40;1.00;;;;;;5052005;28;20200;-75
2023/05/08 15:18:30;;;;;;;11.80;9.93;;;24.20;1.00;;;;;;5051416;28;20195;-75
2023/05/08 15:20:57;;;;;;;11.70;9.93;;;24.10;1.00;;;;;;5050783;28;20423;-76
2023/05/08 15:23:22;;;;;;;10.97;9.80;;;24.20;1.00;;;;;;5048924;28;20662;-76
2023/05/08 15:25:48;;;;;;;12.00;10.23;;;24.40;1.00;;;;;;5042160;28;20530;-76
2023/05/08 15:28:14;;;;;;;11.20;9.67;;;24.80;1.00;;;;;;5051559;28;20250;-76
2023/05/08 15:30:39;;;;;;;11.40;10.20;;;25.10;1.00;;;;;;5050796;28;20208;-76
2023/05/08 15:33:05;;;;;;;11.57;10.37;;;24.70;1.00;;;;;;5051104;28;20203;-76
2023/05/08 15:35:30;;;;;;;10.70;9.40;;;24.20;1.00;;;;;;5050246;28;20568;-76
2023/05/08 15:37:56;;;;;;;12.10;10.80;;;23.80;1.00;;;;;;5050778;28;20698;-76
2023/05/08 15:40:21;;;;;;;11.90;10.30;;;23.80;1.00;;;;;;5051597;28;20195;-77
2023/05/08 15:42:47;;;;;;;12.47;10.30;;;24.00;1.00;;;;;;5048240;28;20173;-76
2023/05/08 15:45:12;;;;;;;12.27;10.97;;;24.00;1.00;;;;;;5050618;28;20266;-75
2023/05/08 15:47:38;;;;;;;14.00;11.10;;;23.40;1.00;;;;;;5048931;28;20512;-76
2023/05/08 15:50:04;;;;;;;12.10;10.67;;;23.40;1.00;;;;;;5051066;28;20175;-75
2023/05/08 15:52:29;;;;;;;11.53;10.30;;;23.20;1.00;;;;;;5050489;28;20731;-75
2023/05/08 15:54:55;;;;;;;12.20;10.20;;;22.80;1.00;;;;;;5049581;28;20189;-75
2023/05/08 15:57:20;;;;;;;11.43;10.20;;;22.40;1.00;;;;;;5050435;28;20211;-75
2023/05/08 15:59:46;;;;;;;13.33;10.60;;;22.20;1.00;;;;;;5048084;28;20736;-75
2023/05/08 16:02:11;;;;;;;12.53;11.13;;;22.10;1.00;;;;;;5047318;28;20654;-78
2023/05/08 16:04:37;;;;;;;13.43;11.87;;;22.10;1.00;;;;;;5047561;28;20219;-76
2023/05/08 16:07:03;;;;;;;11.63;10.43;;;22.00;1.00;;;;;;5047349;28;20191;-75
2023/05/08 16:09:28;;;;;;;12.80;11.10;;;21.70;1.00;;;;;;5049878;28;20209;-75
2023/05/08 16:11:54;;;;;;;13.70;11.13;;;21.60;1.00;;;;;;5045862;28;20602;-76
2023/05/08 16:14:19;;;;;;;16.23;12.47;;;21.60;1.00;;;;;;5048440;28;20204;-75
2023/05/08 16:16:45;;;;;;;19.63;11.57;;;21.60;1.00;;;;;;5047212;28;20300;-76
2023/05/08 16:19:11;;;;;;;14.70;11.90;;;21.60;1.00;;;;;;5049247;28;20247;-75
2023/05/08 16:21:36;;;;;;;16.50;12.30;;;21.60;1.00;;;;;;5048038;28;20196;-74
2023/05/08 16:24:02;;;;;;;14.40;12.10;;;21.50;1.00;;;;;;5049932;28;20659;-74
2023/05/08 16:26:28;;;;;;;13.87;11.63;;;21.50;1.00;;;;;;5049854;28;20230;-76
2023/05/08 16:28:53;;;;;;;15.93;11.23;;;21.40;1.00;;;;;;5049015;28;20212;-75
2023/05/08 16:31:18;;;;;;;18.57;12.40;;;21.50;1.00;;;;;;5050221;28;20197;-75
2023/05/08 16:33:44;;;;;;;14.50;12.33;;;21.40;1.00;;;;;;5049445;28;20661;-76
2023/05/08 16:36:09;;;;;;;13.17;11.10;;;21.40;1.00;;;;;;5048801;28;20181;-75
2023/05/08 16:38:35;;;;;;;13.90;12.03;;;21.50;1.00;;;;;;5049947;28;20203;-74
2023/05/08 16:41:02;;;;;;;14.40;11.67;;;21.50;1.00;;;;;;5050024;28;20181;-75
2023/05/08 16:43:27;;;;;;;16.20;12.80;;;21.50;1.00;;;;;;5047272;28;20192;-75
2023/05/08 16:45:53;;;;;;;13.87;12.03;;;21.40;1.00;;;;;;5048850;28;20439;-75
2023/05/08 16:48:18;;;;;;;14.20;12.30;;;21.40;1.00;;;;;;5048266;28;20208;-75
2023/05/08 16:50:44;;;;;;;15.03;12.10;;;21.40;1.00;;;;;;5049549;28;20243;-75
2023/05/08 16:53:09;;;;;;;12.57;11.23;;;21.50;1.00;;;;;;5049727;28;20201;-76
2023/05/08 16:55:35;;;;;;;13.63;12.10;;;21.50;1.00;;;;;;5049818;28;20181;-77
2023/05/08 16:58:03;;;;;;;15.47;13.50;;;21.40;1.00;;;;;;5047593;28;20443;-75
2023/05/08 17:00:29;;;;;;;13.07;11.63;;;21.40;1.00;;;;;;5049527;28;20180;-75
2023/05/08 17:02:54;;;;;;;15.27;12.30;;;21.30;1.00;;;;;;5049768;28;20778;-77
2023/05/08 17:05:20;;;;;;;14.27;12.30;;;21.30;1.00;;;;;;5053719;28;20419;-76
2023/05/08 17:07:46;;;;;;;13.23;11.83;;;21.20;1.00;;;;;;5046234;28;20201;-76
2023/05/08 17:10:11;;;;;;;12.83;11.43;;;21.20;1.00;;;;;;5049405;28;20196;-76
2023/05/08 17:12:37;;;;;;;12.77;11.40;;;21.20;1.00;;;;;;5047038;28;20208;-76
2023/05/08 17:15:03;;;;;;;15.30;12.40;;;22.70;1.00;;;;;;5049192;28;20255;-76
2023/05/08 17:17:29;;;;;;;14.33;12.70;;;21.10;1.00;;;;;;5050118;28;20637;-76
2023/05/08 17:19:54;;;;;;;14.63;12.30;;;21.10;1.00;;;;;;5043146;28;20504;-76
2023/05/08 17:22:20;;;;;;;13.40;12.00;;;20.90;1.00;;;;;;5049858;28;20185;-75
2023/05/08 17:24:46;;;;;;;16.53;11.27;;;21.00;1.00;;;;;;5047943;28;20682;-76
2023/05/08 17:27:11;;;;;;;15.57;13.00;;;21.00;1.00;;;;;;5049411;28;20428;-75
2023/05/08 17:29:37;;;;;;;16.00;12.80;;;21.00;1.00;;;;;;5049644;28;20275;-77
2023/05/08 17:32:03;;;;;;;15.80;12.57;;;20.80;1.00;;;;;;5049184;28;20180;-77
2023/05/08 17:34:29;;;;;;;16.87;12.80;;;20.60;1.00;;;;;;5047305;28;20319;-78
2023/05/08 17:36:54;;;;;;;14.03;12.53;;;20.50;1.00;;;;;;5048388;28;20714;-78
2023/05/08 17:39:20;;;;;;;20.30;12.73;;;20.40;1.00;;;;;;5046189;28;20209;-77
2023/05/08 17:41:48;;;;;;;15.40;12.77;;;20.50;1.00;;;;;;5050392;28;20672;-79
2023/05/08 17:44:13;;;;;;;22.13;12.83;;;20.40;1.00;;;;;;5046847;28;20431;-79
2023/05/08 17:46:39;;;;;;;15.30;12.73;;;20.20;1.00;;;;;;5045559;28;20823;-78
2023/05/08 17:49:04;;;;;;;16.97;13.40;;;20.10;1.00;;;;;;5042734;28;20205;-79
2023/05/08 17:51:30;;;;;;;21.13;13.43;;;20.00;1.00;;;;;;5042886;28;20173;-79
2023/05/08 17:53:56;;;;;;;18.53;13.40;;;20.00;1.00;;;;;;5047939;28;20228;-78
2023/05/08 17:56:22;;;;;;;16.63;13.40;;;19.90;1.00;;;;;;5053548;28;20212;-79
2023/05/08 17:58:48;;;;;;;14.30;12.70;;;19.90;1.00;;;;;;5053676;28;20213;-80
2023/05/08 18:01:14;;;;;;;15.50;13.40;;;19.90;1.00;;;;;;5046627;28;20530;-79
2023/05/08 18:03:40;;;;;;;18.03;13.67;;;19.80;1.00;;;;;;5050517;28;20538;-80
2023/05/08 18:06:06;;;;;;;15.93;12.10;;;19.80;1.00;;;;;;5049040;28;20177;-79
2023/05/08 18:08:32;;;;;;;16.83;13.40;;;19.80;1.00;;;;;;5047676;28;20209;-79
2023/05/08 18:10:58;;;;;;;23.07;13.60;;;19.70;1.00;;;;;;5051202;28;20208;-80
2023/05/08 18:13:24;;;;;;;15.80;13.27;;;19.80;1.00;;;;;;5052068;28;20965;-79
2023/05/08 18:15:49;;;;;;;15.60;12.67;;;19.70;1.00;;;;;;5050229;28;20193;-80
2023/05/08 18:18:15;;;;;;;14.95;12.45;;;19.80;1.00;;;;;;5050959;28;20430;-77
2023/05/08 18:20:40;;;;;;;14.27;12.77;;;19.80;1.00;;;;;;5049175;28;20788;-76
2023/05/08 18:23:06;;;;;;;14.97;13.27;;;19.80;1.00;;;;;;5047178;28;20446;-76
2023/05/08 18:25:31;;;;;;;15.43;13.80;;;19.60;1.00;;;;;;5049170;28;20185;-76
2023/05/08 18:27:57;;;;;;;17.60;12.33;;;19.50;1.00;;;;;;5048694;28;20216;-74
2023/05/08 18:30:23;;;;;;;14.53;12.50;;;19.40;1.00;;;;;;5048955;28;20187;-75
2023/05/08 18:32:51;;;;;;;16.13;13.00;;;19.20;1.00;;;;;;5051355;28;20583;-75
2023/05/08 18:35:17;;;;;;;14.53;12.80;;;19.10;1.00;;;;;;5051443;28;20181;-75
2023/05/08 18:37:42;;;;;;;15.70;13.87;;;19.10;1.00;;;;;;5051480;28;20943;-76
2023/05/08 18:40:08;;;;;;;15.73;13.67;;;19.00;1.00;;;;;;5051135;28;20177;-76
2023/05/08 18:42:34;;;;;;;17.00;13.30;;;18.90;1.00;;;;;;5050995;28;20212;-75
2023/05/08 18:45:04;;;;;;;15.00;13.40;;;18.80;1.00;;;;;;5050814;28;20363;-75
2023/05/08 18:47:30;;;;;;;14.23;12.50;;;18.80;1.00;;;;;;5051495;28;20191;-76
2023/05/08 18:49:56;;;;;;;18.27;13.70;;;18.70;1.00;;;;;;5050987;28;20801;-76
2023/05/08 18:52:22;;;;;;;16.70;13.40;;;18.60;1.00;;;;;;5051418;28;20189;-75
2023/05/08 18:54:47;;;;;;;16.93;12.47;;;18.90;1.00;;;;;;5051227;28;20426;-75
2023/05/08 18:57:13;;;;;;;16.60;13.87;;;18.40;1.00;;;;;;5051149;28;20185;-75
2023/05/08 18:59:38;;;;;;;15.77;12.57;;;18.30;1.00;;;;;;5050786;28;20209;-76
2023/05/08 19:02:04;;;;;;;17.87;13.60;;;18.30;1.00;;;;;;5050443;28;20605;-76
2023/05/08 19:04:30;;;;;;;17.10;12.97;;;18.30;1.00;;;;;;5049392;28;20185;-76
2023/05/08 19:06:55;;;;;;;15.43;13.20;;;18.30;1.00;;;;;;5050343;28;20264;-76
2023/05/08 19:09:21;;;;;;;16.40;12.50;;;18.20;1.00;;;;;;5051185;28;20208;-75
2023/05/08 19:11:47;;;;;;;15.37;13.30;;;18.20;1.00;;;;;;5050279;28;20271;-75
2023/05/08 19:14:13;;;;;;;14.00;12.50;;;18.20;1.00;;;;;;5044363;28;20551;-76
2023/05/08 19:16:38;;;;;;;17.63;13.70;;;18.20;1.00;;;;;;5051038;28;20188;-75
2023/05/08 19:19:04;;;;;;;16.67;13.47;;;18.20;1.00;;;;;;5048733;28;20364;-75
2023/05/08 19:21:30;;;;;;;17.60;13.87;;;18.20;1.00;;;;;;5047195;28;20627;-74
2023/05/08 19:23:56;;;;;;;15.30;13.40;;;18.20;1.00;;;;;;5042446;28;20185;-75
2023/05/08 19:26:22;;;;;;;14.60;12.40;;;18.20;1.00;;;;;;5045649;28;20458;-75
2023/05/08 19:28:47;;;;;;;20.17;17.47;;;18.10;1.00;;;;;;5048178;28;20207;-74
2023/05/08 19:31:13;;;;;;;19.93;15.93;;;18.00;1.00;;;;;;5048067;28;20209;-75
2023/05/08 19:33:38;;;;;;;20.50;15.77;;;18.10;1.00;;;;;;5050223;28;20208;-75
2023/05/08 19:36:04;;;;;;;24.00;20.13;;;18.10;1.00;;;;;;5045532;28;20193;-75
2023/05/08 19:38:29;;;;;;;21.73;14.70;;;18.10;1.00;;;;;;5046790;28;20205;-75
2023/05/08 19:40:55;;;;;;;16.30;14.07;;;18.10;1.00;;;;;;5048372;28;20200;-75
2023/05/08 19:43:20;;;;;;;17.50;14.50;;;18.10;1.00;;;;;;5048847;28;20681;-75
2023/05/08 19:45:46;;;;;;;16.13;14.27;;;18.20;1.00;;;;;;5047194;28;20185;-75
2023/05/08 19:48:11;;;;;;;18.60;13.83;;;18.20;1.00;;;;;;5049090;28;20213;-75
2023/05/08 19:50:37;;;;;;;18.47;15.97;;;18.20;1.00;;;;;;5048585;28;20208;-75
2023/05/08 19:53:02;;;;;;;16.53;14.00;;;18.30;1.00;;;;;;5046426;28;20201;-75
2023/05/08 19:55:28;;;;;;;20.00;14.17;;;18.30;1.00;;;;;;5047929;28;20181;-75
2023/05/08 19:57:53;;;;;;;18.60;14.20;;;18.40;1.00;;;;;;5047882;28;20236;-75
2023/05/08 20:00:19;;;;;;;16.23;14.53;;;18.30;1.00;;;;;;5048346;28;20185;-75
2023/05/08 20:02:45;;;;;;;18.13;14.77;;;18.30;1.00;;;;;;5048246;28;20723;-75
2023/05/08 20:05:10;;;;;;;17.17;14.60;;;18.30;1.00;;;;;;5049107;28;20181;-75
2023/05/08 20:07:36;;;;;;;16.73;14.83;;;18.20;1.00;;;;;;5046932;28;20644;-76
2023/05/08 20:10:01;;;;;;;17.27;13.90;;;18.10;1.00;;;;;;5047315;28;20185;-75
2023/05/08 20:12:27;;;;;;;18.10;15.27;;;18.10;1.00;;;;;;5045344;28;20596;-74
2023/05/08 20:14:53;;;;;;;16.63;13.97;;;18.10;1.00;;;;;;5049351;28;20677;-76
2023/05/08 20:17:18;;;;;;;16.70;14.87;;;18.00;1.00;;;;;;5045519;28;20662;-75
2023/05/08 20:19:44;;;;;;;17.47;15.57;;;18.10;1.00;;;;;;5048497;28;20205;-74
2023/05/08 20:22:09;;;;;;;16.57;14.70;;;18.10;1.00;;;;;;5048187;28;20185;-75
2023/05/08 20:24:35;;;;;;;20.37;15.50;;;18.00;1.00;;;;;;5047858;28;20260;-75
2023/05/08 20:27:01;;;;;;;18.23;15.03;;;18.10;1.00;;;;;;5048271;28;20193;-75
2023/05/08 20:29:26;;;;;;;18.07;15.30;;;18.00;1.00;;;;;;5046592;28;20227;-75
2023/05/08 20:31:52;;;;;;;18.53;15.60;;;18.10;1.00;;;;;;5047746;28;20239;-75
2023/05/08 20:34:18;;;;;;;20.30;14.53;;;18.20;1.00;;;;;;5047250;28;20205;-75
2023/05/08 20:36:44;;;;;;;16.33;14.47;;;18.00;1.00;;;;;;5047147;28;20238;-74
2023/05/08 20:39:10;;;;;;;19.13;14.60;;;18.00;1.00;;;;;;5047941;28;20335;-75
2023/05/08 20:41:36;;;;;;;17.53;14.70;;;17.90;1.00;;;;;;5045180;28;20196;-75
2023/05/08 20:44:02;;;;;;;17.67;14.97;;;17.90;1.00;;;;;;5044018;28;20439;-75
2023/05/08 20:46:27;;;;;;;19.40;15.17;;;17.80;1.00;;;;;;5048192;28;20181;-75
2023/05/08 20:48:53;;;;;;;21.33;15.63;;;17.80;1.00;;;;;;5045633;28;20556;-74
2023/05/08 20:51:18;;;;;;;21.60;15.40;;;17.80;1.00;;;;;;5046188;28;20307;-75
2023/05/08 20:53:44;;;;;;;18.30;14.70;;;17.70;1.00;;;;;;5044271;28;20287;-74
2023/05/08 20:56:09;;;;;;;17.87;14.27;;;17.60;1.00;;;;;;5044379;28;20185;-75
2023/05/08 20:58:35;;;;;;;18.07;14.80;;;17.60;1.00;;;;;;5046861;28;20266;-75
2023/05/08 21:01:00;;;;;;;17.27;14.40;;;17.50;1.00;;;;;;5043902;28;20189;-74
2023/05/08 21:03:26;;;;;;;20.70;15.13;;;17.50;1.00;;;;;;5047759;28;20243;-75
2023/05/08 21:05:52;;;;;;;17.37;15.00;;;17.50;1.00;;;;;;5047591;28;20189;-74
2023/05/08 21:08:25;;;;;;;19.33;15.23;;;17.40;1.00;;;;;;5045764;28;20259;-74
2023/05/08 21:10:51;;;;;;;17.27;15.47;;;17.40;1.00;;;;;;5043202;28;21032;-75
2023/05/08 21:13:17;;;;;;;18.50;15.10;;;17.30;1.00;;;;;;5045681;28;20961;-74